createdAt,value
2023-01-27T00:00:50.769Z,24.97
2023-01-27T00:03:19.108Z,25.40
2023-01-27T00:05:47.177Z,22.83
2023-01-27T00:08:27.981Z,25.65
2023-01-27T00:11:14.393Z,23.27
2023-01-27T00:13:41.851Z,26.93
2023-01-27T00:16:09.389Z,28.30
2023-01-27T00:18:36.890Z,24.73
2023-01-27T00:21:22.739Z,23.57
2023-01-27T00:24:08.296Z,26.77
2023-01-27T00:26:37.157Z,25.30
2023-01-27T00:29:04.620Z,29.37
2023-01-27T00:31:49.495Z,28.10
2023-01-27T00:34:17.007Z,28.17
2023-01-27T00:36:44.594Z,27.30
2023-01-27T00:39:13.069Z,29.90
2023-01-27T00:41:41.953Z,28.07
2023-01-27T00:44:12.962Z,30.53
2023-01-27T00:46:40.747Z,29.10
2023-01-27T00:49:08.532Z,26.10
2023-01-27T00:51:36.867Z,27.50
2023-01-27T00:54:05.073Z,33.23
2023-01-27T00:56:32.948Z,27.40
2023-01-27T00:59:01.991Z,31.20
2023-01-27T01:01:29.576Z,27.90
2023-01-27T01:03:58.736Z,33.80
2023-01-27T01:06:26.622Z,34.70
2023-01-27T01:08:54.395Z,34.27
2023-01-27T01:11:22.383Z,31.93
2023-01-27T01:13:50.397Z,27.30
2023-01-27T01:16:20.726Z,37.40
2023-01-27T01:18:49.147Z,32.03
2023-01-27T01:21:16.977Z,35.00
2023-01-27T01:23:46.405Z,32.83
2023-01-27T01:26:16.058Z,37.63
2023-01-27T01:28:44.645Z,33.67
2023-01-27T01:31:13.640Z,37.20
2023-01-27T01:33:42.489Z,32.37
2023-01-27T01:36:12.633Z,34.40
2023-01-27T01:38:40.458Z,37.03
2023-01-27T01:41:09.384Z,35.23
2023-01-27T01:43:36.897Z,36.60
2023-01-27T01:46:04.906Z,34.87
2023-01-27T01:48:35.936Z,35.53
2023-01-27T01:51:10.720Z,35.23
2023-01-27T01:53:42.826Z,37.40
2023-01-27T01:56:15.474Z,36.00
2023-01-27T01:58:45.807Z,38.60
2023-01-27T02:01:15.959Z,40.63
2023-01-27T02:03:48.227Z,48.43
2023-01-27T02:06:17.244Z,37.57
2023-01-27T02:08:47.157Z,40.47
2023-01-27T02:11:14.649Z,39.40
2023-01-27T02:13:43.511Z,37.97
2023-01-27T02:16:12.317Z,43.43
2023-01-27T02:18:41.629Z,42.90
2023-01-27T02:21:09.577Z,40.63
2023-01-27T02:23:54.363Z,45.70
2023-01-27T02:26:26.521Z,38.60
2023-01-27T02:28:56.896Z,38.40
2023-01-27T02:31:25.343Z,38.27
2023-01-27T02:33:58.945Z,43.43
2023-01-27T02:36:28.500Z,42.83
2023-01-27T02:38:57.716Z,42.70
2023-01-27T02:41:30.255Z,43.03
2023-01-27T02:43:57.793Z,50.60
2023-01-27T02:46:25.389Z,47.37
2023-01-27T02:48:53.547Z,46.80
2023-01-27T02:51:21.276Z,42.10
2023-01-27T02:53:48.771Z,39.73
2023-01-27T02:56:16.265Z,47.23
2023-01-27T02:58:45.179Z,51.93
2023-01-27T03:01:12.726Z,45.47
2023-01-27T03:03:46.828Z,49.17
2023-01-27T03:06:14.847Z,50.00
2023-01-27T03:08:42.958Z,46.70
2023-01-27T03:11:11.087Z,41.53
2023-01-27T03:13:38.918Z,43.20
2023-01-27T03:16:25.600Z,36.67
2023-01-27T03:18:56.378Z,41.57
2023-01-27T03:21:23.916Z,45.10
2023-01-27T03:23:51.526Z,43.40
2023-01-27T03:26:19.049Z,44.37
2023-01-27T03:29:06.555Z,45.67
2023-01-27T03:31:35.466Z,44.90
2023-01-27T03:34:02.982Z,49.80
2023-01-27T03:36:48.229Z,36.80
2023-01-27T03:39:33.589Z,46.50
2023-01-27T03:42:18.573Z,37.53
2023-01-27T03:45:03.428Z,36.87
2023-01-27T03:47:32.727Z,48.37
2023-01-27T03:50:00.221Z,39.67
2023-01-27T03:52:27.710Z,41.70
2023-01-27T03:54:55.161Z,37.17
2023-01-27T03:57:22.633Z,43.13
2023-01-27T03:59:50.101Z,47.47
2023-01-27T04:02:35.171Z,42.20
2023-01-27T04:05:21.752Z,40.97
2023-01-27T04:07:49.231Z,39.80
2023-01-27T04:10:17.331Z,46.17
2023-01-27T04:12:43.863Z,45.63
2023-01-27T04:15:11.923Z,46.73
2023-01-27T04:17:41.903Z,45.83
2023-01-27T04:20:14.155Z,45.73
2023-01-27T04:22:41.635Z,40.93
2023-01-27T04:25:11.082Z,46.10
2023-01-27T04:27:39.776Z,49.10
2023-01-27T04:30:08.863Z,44.50
2023-01-27T04:32:36.354Z,49.57
2023-01-27T04:35:03.876Z,43.47
2023-01-27T04:37:32.967Z,56.80
2023-01-27T04:40:00.464Z,50.67
2023-01-27T04:42:28.099Z,47.03
2023-01-27T04:44:55.578Z,49.57
2023-01-27T04:47:23.061Z,41.40
2023-01-27T04:49:50.652Z,42.90
2023-01-27T04:52:18.131Z,44.97
2023-01-27T04:54:46.932Z,50.63
2023-01-27T04:57:14.493Z,47.20
2023-01-27T04:59:41.970Z,45.87
2023-01-27T05:02:09.597Z,46.10
2023-01-27T05:04:37.096Z,41.90
2023-01-27T05:07:05.915Z,46.77
2023-01-27T05:09:33.373Z,44.37
2023-01-27T05:12:02.182Z,43.33
2023-01-27T05:14:29.641Z,42.47
2023-01-27T05:16:57.141Z,43.73
2023-01-27T05:19:24.740Z,42.33
2023-01-27T05:21:52.202Z,42.40
2023-01-27T05:24:19.683Z,40.63
2023-01-27T05:26:47.342Z,44.03
2023-01-27T05:29:16.184Z,38.63
2023-01-27T05:31:43.669Z,41.90
2023-01-27T05:34:11.293Z,39.17
2023-01-27T05:36:38.787Z,45.00
2023-01-27T05:39:08.799Z,48.30
2023-01-27T05:41:36.502Z,39.73
2023-01-27T05:44:04.147Z,41.17
2023-01-27T05:46:33.793Z,27.17
2023-01-27T05:49:04.168Z,41.43
2023-01-27T05:51:34.112Z,38.23
2023-01-27T05:54:01.846Z,33.63
2023-01-27T05:56:29.376Z,44.63
2023-01-27T05:58:58.231Z,28.53
2023-01-27T06:01:28.547Z,37.47
2023-01-27T06:03:57.957Z,43.50
2023-01-27T06:06:27.345Z,47.40
2023-01-27T06:08:55.340Z,39.60
2023-01-27T06:11:24.320Z,39.63
2023-01-27T06:13:53.119Z,43.60
2023-01-27T06:16:22.502Z,40.17
2023-01-27T06:18:50.284Z,44.23
2023-01-27T06:21:20.809Z,41.23
2023-01-27T06:23:48.593Z,52.50
2023-01-27T06:26:18.694Z,43.40
2023-01-27T06:28:46.503Z,41.97
2023-01-27T06:31:16.842Z,38.40
2023-01-27T06:33:44.789Z,40.23
2023-01-27T06:36:13.770Z,36.70
2023-01-27T06:38:42.906Z,36.80
2023-01-27T06:41:10.668Z,40.90
2023-01-27T06:43:38.213Z,47.53
2023-01-27T06:46:06.371Z,39.03
2023-01-27T06:48:34.565Z,39.37
2023-01-27T06:51:02.118Z,34.00
2023-01-27T06:53:29.645Z,33.00
2023-01-27T06:56:00.056Z,34.33
2023-01-27T06:58:27.761Z,40.03
2023-01-27T07:00:55.516Z,40.57
2023-01-27T07:03:23.257Z,30.87
2023-01-27T07:05:50.949Z,32.73
2023-01-27T07:08:18.400Z,36.93
2023-01-27T07:10:45.849Z,35.77
2023-01-27T07:13:15.862Z,33.70
2023-01-27T07:15:43.777Z,38.33
2023-01-27T07:18:12.202Z,31.10
2023-01-27T07:20:39.740Z,31.37
2023-01-27T07:23:07.315Z,38.50
2023-01-27T07:25:35.855Z,34.97
2023-01-27T07:28:03.894Z,35.87
2023-01-27T07:30:34.294Z,36.40
2023-01-27T07:33:04.952Z,35.93
2023-01-27T07:35:32.618Z,32.90
2023-01-27T07:38:00.277Z,36.77
2023-01-27T07:40:27.719Z,38.07
2023-01-27T07:42:58.551Z,39.20
2023-01-27T07:45:26.455Z,35.70
2023-01-27T07:47:55.315Z,36.83
2023-01-27T07:50:22.747Z,32.17
2023-01-27T07:52:50.189Z,40.83
2023-01-27T07:55:17.817Z,42.23
2023-01-27T07:57:45.264Z,40.03
2023-01-27T08:00:15.454Z,37.43
2023-01-27T08:02:43.057Z,36.00
2023-01-27T08:05:11.860Z,49.43
2023-01-27T08:07:39.305Z,54.63
2023-01-27T08:10:07.049Z,33.37
2023-01-27T08:12:34.505Z,33.93
2023-01-27T08:15:01.968Z,38.67
2023-01-27T08:17:29.444Z,48.87
2023-01-27T08:19:56.896Z,48.23
2023-01-27T08:22:25.735Z,51.07
2023-01-27T08:24:53.207Z,41.97
2023-01-27T08:27:20.701Z,43.10
2023-01-27T08:29:48.215Z,56.23
2023-01-27T08:32:15.776Z,53.10
2023-01-27T08:34:43.232Z,70.53
2023-01-27T08:37:10.689Z,55.93
2023-01-27T08:39:39.491Z,47.87
2023-01-27T08:42:07.422Z,54.07
2023-01-27T08:44:35.068Z,38.03
2023-01-27T08:47:02.546Z,44.87
2023-01-27T08:49:30.050Z,37.13
2023-01-27T08:51:57.596Z,27.17
2023-01-27T08:54:25.094Z,29.03
2023-01-27T08:56:53.895Z,29.50
2023-01-27T08:59:21.361Z,62.50
2023-01-27T09:01:48.828Z,56.83
2023-01-27T09:04:16.314Z,62.10
2023-01-27T09:06:44.033Z,60.67
2023-01-27T09:09:12.366Z,67.23
2023-01-27T09:11:43.049Z,44.13
2023-01-27T09:14:12.499Z,50.70
2023-01-27T09:16:40.050Z,55.27
2023-01-27T09:19:07.561Z,36.30
2023-01-27T09:21:35.017Z,47.00
2023-01-27T09:24:02.527Z,49.07
2023-01-27T09:26:30.124Z,53.13
2023-01-27T09:28:57.620Z,51.10
2023-01-27T09:31:26.565Z,32.60
2023-01-27T09:33:54.090Z,34.53
2023-01-27T09:36:22.514Z,38.53
2023-01-27T09:38:55.167Z,38.10
2023-01-27T09:41:37.403Z,22.33
2023-01-27T09:44:20.707Z,25.63
2023-01-27T09:47:07.286Z,21.57
2023-01-27T09:49:52.320Z,23.57
2023-01-27T09:52:47.138Z,21.10
2023-01-27T09:55:24.939Z,21.27
2023-01-27T09:58:00.167Z,21.37
2023-01-27T10:00:38.914Z,21.13
2023-01-27T10:03:23.423Z,17.63
2023-01-27T10:06:04.983Z,21.53
2023-01-27T10:08:49.889Z,16.87
2023-01-27T10:11:22.461Z,18.93
2023-01-27T10:14:06.704Z,17.17
2023-01-27T10:16:51.973Z,18.20
2023-01-27T10:19:35.565Z,17.97
2023-01-27T10:22:16.465Z,14.23
2023-01-27T10:25:03.999Z,14.87
2023-01-27T10:27:36.740Z,9.87
2023-01-27T10:30:13.949Z,15.63
2023-01-27T10:32:45.422Z,18.37
2023-01-27T10:35:19.251Z,16.73
2023-01-27T10:37:57.164Z,16.60
2023-01-27T10:40:34.895Z,19.10
2023-01-27T10:43:07.211Z,17.63
2023-01-27T10:45:39.683Z,19.20
2023-01-27T10:48:18.336Z,18.43
2023-01-27T10:50:51.492Z,16.97
2023-01-27T10:53:23.507Z,17.67
2023-01-27T10:55:59.444Z,15.77
2023-01-27T10:58:41.047Z,19.47
2023-01-27T11:01:21.030Z,18.63
2023-01-27T11:03:55.380Z,14.43
2023-01-27T11:06:26.166Z,16.97
2023-01-27T11:09:02.429Z,18.57
2023-01-27T11:11:45.359Z,17.50
2023-01-27T11:14:26.500Z,16.17
2023-01-27T11:16:59.117Z,17.03
2023-01-27T11:19:41.529Z,18.97
2023-01-27T11:22:20.616Z,20.23
2023-01-27T11:24:54.051Z,18.37
2023-01-27T11:27:30.954Z,17.37
2023-01-27T11:30:04.318Z,20.57
2023-01-27T11:32:50.059Z,17.50
2023-01-27T11:35:17.771Z,17.33
2023-01-27T11:37:48.927Z,17.80
2023-01-27T11:40:19.878Z,19.83
2023-01-27T11:42:47.670Z,17.70
2023-01-27T11:45:17.586Z,16.90
2023-01-27T11:47:46.700Z,18.87
2023-01-27T11:50:17.016Z,18.20
2023-01-27T11:52:49.080Z,18.83
2023-01-27T11:55:20.120Z,19.50
2023-01-27T11:57:52.486Z,20.23
2023-01-27T12:00:24.916Z,14.80
2023-01-27T12:03:00.388Z,18.60
2023-01-27T12:05:32.009Z,15.83
2023-01-27T12:08:03.610Z,16.43
2023-01-27T12:10:33.625Z,16.90
2023-01-27T12:13:08.256Z,15.27
2023-01-27T12:15:36.292Z,18.27
2023-01-27T12:18:09.843Z,16.27
2023-01-27T12:20:40.258Z,16.83
2023-01-27T12:23:21.134Z,13.93
2023-01-27T12:25:54.909Z,17.23
2023-01-27T12:28:27.000Z,15.00
2023-01-27T12:30:57.541Z,16.63
2023-01-27T12:33:30.036Z,15.80
2023-01-27T12:36:00.006Z,17.00
2023-01-27T12:38:35.286Z,15.60
2023-01-27T12:41:05.446Z,14.93
2023-01-27T12:43:32.975Z,17.70
2023-01-27T12:46:07.105Z,17.80
2023-01-27T12:48:36.273Z,14.70
2023-01-27T12:51:14.441Z,15.17
2023-01-27T12:53:44.205Z,17.70
2023-01-27T12:56:14.670Z,12.57
2023-01-27T12:58:44.627Z,13.40
2023-01-27T13:01:31.047Z,14.33
2023-01-27T13:04:01.833Z,14.77
2023-01-27T13:06:35.184Z,14.63
2023-01-27T13:09:04.404Z,11.23
2023-01-27T13:11:37.221Z,12.83
2023-01-27T13:14:09.102Z,14.03
2023-01-27T13:16:38.753Z,13.07
2023-01-27T13:19:17.962Z,12.23
2023-01-27T13:21:49.230Z,14.07
2023-01-27T13:24:21.906Z,13.17
2023-01-27T13:26:51.481Z,14.03
2023-01-27T13:29:25.022Z,12.93
2023-01-27T13:31:58.567Z,13.97
2023-01-27T13:34:34.281Z,13.40
2023-01-27T13:37:08.832Z,12.57
2023-01-27T13:39:54.885Z,11.57
2023-01-27T13:42:27.056Z,13.47
2023-01-27T13:45:00.988Z,12.30
2023-01-27T13:47:34.742Z,12.57
2023-01-27T13:50:09.689Z,13.97
2023-01-27T13:52:38.163Z,15.87
2023-01-27T13:55:12.781Z,13.07
2023-01-27T13:57:52.993Z,17.80
2023-01-27T14:00:23.829Z,17.80
2023-01-27T14:03:21.761Z,15.90
2023-01-27T14:06:13.030Z,16.30
2023-01-27T14:08:50.631Z,12.83
2023-01-27T14:11:29.210Z,14.17
2023-01-27T14:14:16.895Z,15.47
2023-01-27T14:17:00.175Z,16.37
2023-01-27T14:19:38.546Z,17.33
2023-01-27T14:22:13.200Z,17.80
2023-01-27T14:24:49.331Z,14.77
2023-01-27T14:27:24.262Z,14.33
2023-01-27T14:29:59.771Z,14.00
2023-01-27T14:32:33.169Z,16.70
2023-01-27T14:35:17.592Z,17.23
2023-01-27T14:37:52.522Z,15.50
2023-01-27T14:40:23.813Z,15.70
2023-01-27T14:43:05.401Z,17.57
2023-01-27T14:45:36.607Z,14.40
2023-01-27T14:48:15.614Z,14.03
2023-01-27T14:50:52.771Z,16.47
2023-01-27T14:53:35.823Z,13.17
2023-01-27T14:56:11.892Z,18.17
2023-01-27T14:58:47.491Z,14.77
2023-01-27T15:01:23.045Z,14.37
2023-01-27T15:04:16.381Z,18.27
2023-01-27T15:06:48.246Z,15.60
2023-01-27T15:09:29.041Z,14.90
2023-01-27T15:12:17.305Z,19.23
2023-01-27T15:15:16.386Z,16.73
2023-01-27T15:17:58.681Z,14.20
2023-01-27T15:20:41.241Z,19.30
2023-01-27T15:23:36.918Z,19.97
2023-01-27T15:26:07.111Z,17.57
2023-01-27T15:28:39.294Z,18.77
2023-01-27T15:31:21.417Z,16.20
2023-01-27T15:33:55.678Z,13.00
2023-01-27T15:36:34.637Z,12.17
2023-01-27T15:39:20.195Z,13.67
2023-01-27T15:41:54.512Z,15.13
2023-01-27T15:44:30.240Z,16.80
2023-01-27T15:47:07.901Z,15.17
2023-01-27T15:49:41.359Z,12.70
2023-01-27T15:52:16.121Z,15.73
2023-01-27T15:54:45.185Z,13.60
2023-01-27T15:57:26.117Z,15.77
2023-01-27T15:59:59.481Z,13.77
2023-01-27T16:02:30.491Z,13.30
2023-01-27T16:05:06.503Z,16.47
2023-01-27T16:07:36.499Z,14.43
2023-01-27T16:10:08.677Z,12.33
2023-01-27T16:12:42.424Z,13.10
2023-01-27T16:15:31.894Z,11.13
2023-01-27T16:18:19.168Z,13.00
2023-01-27T16:20:52.883Z,12.10
2023-01-27T16:23:29.767Z,12.77
2023-01-27T16:26:16.371Z,15.80
2023-01-27T16:28:47.089Z,11.90
2023-01-27T16:31:19.839Z,19.00
2023-01-27T16:33:52.675Z,12.57
2023-01-27T16:36:24.665Z,17.23
2023-01-27T16:38:53.108Z,11.60
2023-01-27T16:41:23.420Z,14.27
2023-01-27T16:43:53.109Z,9.87
2023-01-27T16:46:29.951Z,13.13
2023-01-27T16:48:58.964Z,15.27
2023-01-27T16:51:29.088Z,12.80
2023-01-27T16:53:59.052Z,12.17
2023-01-27T16:56:29.004Z,15.67
2023-01-27T16:59:01.557Z,15.10
2023-01-27T17:01:35.672Z,14.37
2023-01-27T17:04:19.251Z,22.07
2023-01-27T17:06:48.152Z,20.93
2023-01-27T17:09:24.561Z,14.17
2023-01-27T17:11:53.556Z,15.77
2023-01-27T17:14:30.296Z,13.33
2023-01-27T17:17:00.887Z,12.87
2023-01-27T17:19:32.521Z,11.47
2023-01-27T17:22:02.166Z,16.70
2023-01-27T17:24:31.811Z,15.57
2023-01-27T17:27:03.704Z,17.10
2023-01-27T17:29:36.108Z,17.37
2023-01-27T17:32:05.262Z,13.33
2023-01-27T17:34:34.459Z,12.30
2023-01-27T17:37:15.861Z,12.63
2023-01-27T17:39:44.082Z,12.23
2023-01-27T17:42:16.759Z,12.20
2023-01-27T17:44:44.618Z,11.53
2023-01-27T17:47:15.418Z,18.97
2023-01-27T17:49:46.076Z,14.90
2023-01-27T17:52:20.301Z,15.37
2023-01-27T17:54:49.248Z,15.23
2023-01-27T17:57:21.662Z,18.77
2023-01-27T17:59:57.747Z,14.00
2023-01-27T18:02:28.498Z,14.50
2023-01-27T18:05:01.236Z,16.10
2023-01-27T18:07:29.222Z,13.20
2023-01-27T18:09:57.843Z,17.80
2023-01-27T18:12:34.076Z,14.77
2023-01-27T18:15:35.117Z,14.90
2023-01-27T18:18:04.518Z,20.97
2023-01-27T18:20:36.030Z,15.93
2023-01-27T18:23:07.854Z,19.70
2023-01-27T18:25:35.353Z,17.47
2023-01-27T18:28:03.233Z,16.73
2023-01-27T18:30:30.844Z,19.57
2023-01-27T18:33:03.843Z,16.30
2023-01-27T18:35:34.874Z,17.97
2023-01-27T18:38:04.680Z,19.23
2023-01-27T18:40:33.859Z,19.87
2023-01-27T18:43:03.215Z,17.20
2023-01-27T18:45:31.138Z,19.20
2023-01-27T18:47:59.439Z,20.00
2023-01-27T18:50:28.075Z,17.67
2023-01-27T18:52:56.981Z,20.40
2023-01-27T18:55:26.355Z,16.73
2023-01-27T18:57:55.879Z,22.50
2023-01-27T19:00:25.139Z,19.50
2023-01-27T19:02:56.133Z,19.93
2023-01-27T19:05:26.501Z,19.43
2023-01-27T19:07:53.968Z,20.60
2023-01-27T19:10:25.749Z,19.60
2023-01-27T19:12:53.278Z,17.10
2023-01-27T19:15:23.705Z,22.03
2023-01-27T19:17:52.288Z,25.00
2023-01-27T19:20:22.738Z,21.00
2023-01-27T19:22:51.548Z,20.70
2023-01-27T19:25:19.096Z,28.73
2023-01-27T19:27:51.925Z,31.67
2023-01-27T19:30:26.751Z,20.53
2023-01-27T19:32:55.157Z,22.60
2023-01-27T19:35:23.580Z,20.77
2023-01-27T19:37:52.828Z,24.27
2023-01-27T19:40:22.583Z,22.13
2023-01-27T19:42:51.804Z,20.30
2023-01-27T19:45:20.805Z,44.17
2023-01-27T19:47:49.400Z,31.60
2023-01-27T19:50:19.933Z,41.50
2023-01-27T19:52:47.668Z,22.97
2023-01-27T19:55:15.751Z,30.43
2023-01-27T19:57:44.570Z,22.27
2023-01-27T20:00:23.157Z,19.23
2023-01-27T20:02:51.034Z,19.87
2023-01-27T20:05:19.070Z,20.37
2023-01-27T20:07:46.661Z,17.87
2023-01-27T20:10:18.062Z,21.43
2023-01-27T20:12:46.466Z,19.53
2023-01-27T20:15:18.189Z,19.57
2023-01-27T20:17:45.669Z,16.87
2023-01-27T20:20:14.256Z,22.07
2023-01-27T20:22:41.793Z,32.90
2023-01-27T20:25:14.364Z,22.10
2023-01-27T20:27:42.515Z,15.17
2023-01-27T20:30:15.613Z,22.73
2023-01-27T20:32:44.547Z,20.57
2023-01-27T20:35:14.378Z,19.30
2023-01-27T20:37:42.357Z,22.43
2023-01-27T20:40:14.216Z,34.37
2023-01-27T20:42:41.724Z,22.50
2023-01-27T20:45:09.989Z,16.17
2023-01-27T20:47:37.877Z,21.50
2023-01-27T20:50:08.371Z,21.17
2023-01-27T20:52:36.705Z,20.87
2023-01-27T20:55:05.008Z,19.47
2023-01-27T20:57:32.588Z,22.57
2023-01-27T21:00:00.117Z,17.97
2023-01-27T21:02:29.087Z,19.80
2023-01-27T21:04:56.775Z,21.00
2023-01-27T21:07:26.791Z,23.90
2023-01-27T21:09:54.992Z,20.97
2023-01-27T21:12:22.840Z,21.90
2023-01-27T21:14:50.292Z,21.03
2023-01-27T21:17:18.291Z,21.47
2023-01-27T21:19:45.759Z,18.17
2023-01-27T21:22:13.233Z,19.73
2023-01-27T21:24:43.101Z,19.87
2023-01-27T21:27:10.559Z,19.57
2023-01-27T21:29:38.021Z,18.83
2023-01-27T21:32:06.053Z,21.67
2023-01-27T21:34:34.521Z,16.93
2023-01-27T21:37:01.988Z,19.03
2023-01-27T21:39:29.454Z,21.80
2023-01-27T21:42:16.241Z,24.80
2023-01-27T21:45:01.720Z,20.63
2023-01-27T21:47:29.193Z,21.30
2023-01-27T21:50:02.747Z,20.63
2023-01-27T21:52:33.393Z,19.57
2023-01-27T21:55:01.903Z,17.67
2023-01-27T21:57:30.927Z,19.37
2023-01-27T21:59:59.314Z,15.63
2023-01-27T22:02:27.070Z,19.73
2023-01-27T22:04:54.559Z,22.30
2023-01-27T22:07:22.056Z,19.60
2023-01-27T22:09:49.520Z,16.03
2023-01-27T22:12:18.168Z,17.33
2023-01-27T22:14:47.049Z,17.17
2023-01-27T22:17:14.545Z,16.97
2023-01-27T22:19:42.738Z,17.63
2023-01-27T22:22:11.539Z,16.67
2023-01-27T22:24:39.040Z,18.37
2023-01-27T22:27:06.591Z,16.90
2023-01-27T22:29:34.071Z,18.50
2023-01-27T22:32:03.180Z,43.60
2023-01-27T22:34:30.720Z,61.27
2023-01-27T22:36:58.196Z,56.33
2023-01-27T22:39:25.688Z,53.80
2023-01-27T22:41:53.169Z,58.43
2023-01-27T22:44:21.166Z,51.03
2023-01-27T22:46:49.972Z,35.00
2023-01-27T22:49:18.769Z,43.07
2023-01-27T22:51:48.648Z,33.47
2023-01-27T22:54:16.289Z,28.33
2023-01-27T22:56:43.754Z,19.03
2023-01-27T22:59:12.922Z,19.03
2023-01-27T23:01:40.415Z,32.83
2023-01-27T23:04:07.894Z,52.63
2023-01-27T23:06:36.680Z,40.10
2023-01-27T23:09:04.452Z,46.67
2023-01-27T23:11:32.151Z,23.80
2023-01-27T23:13:59.609Z,15.43
2023-01-27T23:16:27.093Z,20.63
2023-01-27T23:18:54.623Z,17.80
2023-01-27T23:21:22.133Z,20.63
2023-01-27T23:23:52.078Z,26.73
2023-01-27T23:26:19.673Z,14.70
2023-01-27T23:28:47.153Z,16.40
2023-01-27T23:31:15.127Z,21.60
2023-01-27T23:33:43.894Z,17.00
2023-01-27T23:36:12.903Z,22.90
2023-01-27T23:38:40.423Z,22.80
2023-01-27T23:41:13.506Z,20.77
2023-01-27T23:43:41.069Z,21.90
2023-01-27T23:46:08.611Z,24.27
2023-01-27T23:48:36.081Z,15.50
2023-01-27T23:51:07.421Z,15.67
2023-01-27T23:53:34.890Z,15.60
2023-01-27T23:56:02.454Z,18.63
2023-01-27T23:58:31.247Z,52.00
